createdAt,value
2023-07-04T00:01:25.280Z,99.90
2023-07-04T00:03:54.277Z,99.90
2023-07-04T00:06:21.673Z,99.90
2023-07-04T00:08:50.304Z,99.90
2023-07-04T00:11:17.450Z,99.90
2023-07-04T00:13:44.464Z,99.90
2023-07-04T00:16:13.045Z,99.90
2023-07-04T00:18:40.067Z,99.90
2023-07-04T00:21:08.415Z,99.90
2023-07-04T00:23:36.527Z,99.90
2023-07-04T00:26:05.538Z,99.90
2023-07-04T00:28:32.463Z,99.90
2023-07-04T00:30:59.394Z,99.90
2023-07-04T00:33:28.784Z,99.90
2023-07-04T00:36:08.511Z,99.90
2023-07-04T00:38:36.171Z,99.90
2023-07-04T00:41:08.178Z,99.90
2023-07-04T00:44:15.279Z,99.90
2023-07-04T00:46:44.389Z,99.90
2023-07-04T00:49:19.625Z,99.90
2023-07-04T00:52:05.644Z,99.90
2023-07-04T00:54:49.039Z,99.90
2023-07-04T00:57:16.347Z,99.90
2023-07-04T00:59:47.972Z,99.90
2023-07-04T01:02:17.255Z,99.90
2023-07-04T01:04:44.641Z,99.90
2023-07-04T01:07:29.444Z,99.90
2023-07-04T01:09:59.093Z,99.90
2023-07-04T01:12:29.085Z,99.90
2023-07-04T01:14:55.993Z,99.90
2023-07-04T01:17:22.951Z,99.90
2023-07-04T01:19:50.323Z,99.90
2023-07-04T01:22:21.372Z,99.90
2023-07-04T01:24:53.939Z,99.90
2023-07-04T01:27:20.956Z,99.90
2023-07-04T01:29:47.805Z,99.90
2023-07-04T01:32:14.995Z,99.90
2023-07-04T01:34:42.385Z,99.90
2023-07-04T01:37:09.293Z,99.90
2023-07-04T01:39:36.170Z,99.90
2023-07-04T01:42:06.623Z,99.90
2023-07-04T01:44:33.715Z,99.90
2023-07-04T01:47:00.596Z,99.90
2023-07-04T01:49:27.572Z,99.90
2023-07-04T01:51:54.472Z,99.90
2023-07-04T01:54:21.636Z,99.90
2023-07-04T01:56:49.444Z,99.90
2023-07-04T01:59:16.590Z,99.90
2023-07-04T02:01:44.449Z,99.90
2023-07-04T02:04:12.198Z,99.90
2023-07-04T02:06:39.073Z,99.90
2023-07-04T02:09:07.533Z,99.90
2023-07-04T02:11:37.047Z,99.90
2023-07-04T02:14:04.066Z,99.90
2023-07-04T02:16:31.076Z,99.90
2023-07-04T02:18:58.997Z,99.90
2023-07-04T02:21:27.855Z,99.90
2023-07-04T02:23:55.487Z,99.90
2023-07-04T02:26:22.466Z,99.90
2023-07-04T02:28:51.143Z,99.90
2023-07-04T02:31:18.178Z,99.90
2023-07-04T02:33:45.099Z,99.90
2023-07-04T02:36:13.380Z,99.90
2023-07-04T02:38:40.864Z,99.90
2023-07-04T02:41:09.276Z,99.90
2023-07-04T02:43:37.253Z,99.90
2023-07-04T02:46:05.344Z,99.90
2023-07-04T02:48:33.301Z,99.90
2023-07-04T02:51:01.372Z,99.90
2023-07-04T02:53:28.476Z,99.90
2023-07-04T02:55:55.828Z,99.90
2023-07-04T02:58:26.584Z,99.90
2023-07-04T03:00:53.745Z,99.90
2023-07-04T03:03:23.606Z,99.90
2023-07-04T03:05:51.975Z,99.90
2023-07-04T03:08:19.308Z,99.90
2023-07-04T03:10:47.668Z,99.90
2023-07-04T03:13:17.873Z,99.90
2023-07-04T03:15:45.758Z,99.90
2023-07-04T03:18:12.799Z,99.90
2023-07-04T03:20:42.093Z,99.90
2023-07-04T03:23:09.740Z,99.90
2023-07-04T03:25:37.671Z,99.90
2023-07-04T03:28:05.177Z,99.90
2023-07-04T03:30:32.105Z,99.90
2023-07-04T03:33:07.436Z,99.90
2023-07-04T03:35:49.065Z,99.90
2023-07-04T03:38:20.958Z,99.90
2023-07-04T03:40:47.845Z,99.90
2023-07-04T03:43:14.786Z,99.90
2023-07-04T03:45:44.835Z,99.90
2023-07-04T03:48:11.850Z,99.90
2023-07-04T03:50:39.883Z,99.90
2023-07-04T03:53:06.790Z,99.90
2023-07-04T03:55:33.702Z,99.90
2023-07-04T03:58:00.716Z,99.90
2023-07-04T04:00:28.008Z,99.90
2023-07-04T04:02:59.894Z,99.90
2023-07-04T04:05:27.994Z,99.90
2023-07-04T04:07:55.182Z,99.90
2023-07-04T04:10:22.193Z,99.90
2023-07-04T04:12:49.040Z,99.90
2023-07-04T04:15:15.968Z,99.90
2023-07-04T04:17:43.127Z,99.90
2023-07-04T04:20:13.480Z,99.90
2023-07-04T04:22:45.033Z,99.90
2023-07-04T04:25:13.706Z,99.90
2023-07-04T04:27:41.105Z,99.90
2023-07-04T04:30:10.958Z,99.90
2023-07-04T04:32:38.560Z,99.90
2023-07-04T04:35:06.143Z,99.90
2023-07-04T04:37:33.339Z,99.90
2023-07-04T04:40:01.119Z,99.90
2023-07-04T04:42:28.793Z,99.90
2023-07-04T04:44:55.911Z,99.90
2023-07-04T04:47:26.227Z,99.90
2023-07-04T04:49:53.437Z,99.90
2023-07-04T04:52:21.192Z,99.90
2023-07-04T04:54:49.105Z,99.90
2023-07-04T04:57:16.907Z,99.90
2023-07-04T04:59:44.008Z,99.90
2023-07-04T05:02:10.914Z,99.90
2023-07-04T05:04:37.882Z,99.90
2023-07-04T05:07:05.076Z,99.90
2023-07-04T05:09:32.507Z,99.90
2023-07-04T05:12:00.437Z,99.90
2023-07-04T05:14:27.348Z,99.90
2023-07-04T05:16:54.194Z,99.90
2023-07-04T05:19:21.070Z,99.90
2023-07-04T05:21:49.337Z,99.90
2023-07-04T05:24:16.529Z,99.90
2023-07-04T05:26:43.448Z,99.90
2023-07-04T05:29:10.425Z,99.90
2023-07-04T05:31:37.346Z,99.90
2023-07-04T05:34:04.316Z,99.90
2023-07-04T05:36:32.813Z,99.90
2023-07-04T05:39:01.517Z,99.90
2023-07-04T05:41:29.538Z,99.90
2023-07-04T05:43:57.023Z,99.90
2023-07-04T05:46:24.195Z,99.90
2023-07-04T05:48:51.265Z,99.90
2023-07-04T05:51:18.656Z,99.90
2023-07-04T05:53:48.623Z,99.90
2023-07-04T05:56:19.324Z,99.90
2023-07-04T05:58:50.651Z,99.90
2023-07-04T06:01:19.355Z,99.90
2023-07-04T06:03:46.501Z,99.90
2023-07-04T06:06:27.382Z,99.90
2023-07-04T06:08:55.424Z,99.90
2023-07-04T06:11:23.281Z,99.90
2023-07-04T06:13:50.255Z,99.90
2023-07-04T06:16:17.322Z,99.90
2023-07-04T06:18:44.818Z,99.90
2023-07-04T06:21:15.541Z,99.90
2023-07-04T06:23:43.104Z,99.90
2023-07-04T06:26:10.451Z,99.90
2023-07-04T06:28:37.785Z,99.90
2023-07-04T06:31:05.581Z,99.90
2023-07-04T06:33:32.992Z,99.90
2023-07-04T06:36:00.249Z,99.90
2023-07-04T06:38:27.465Z,99.90
2023-07-04T06:41:01.937Z,99.90
2023-07-04T06:43:30.170Z,99.90
2023-07-04T06:45:57.169Z,99.90
2023-07-04T06:48:25.037Z,99.90
2023-07-04T06:51:05.820Z,99.90
2023-07-04T06:53:33.605Z,99.90
2023-07-04T06:56:16.628Z,99.90
2023-07-04T06:58:46.948Z,99.90
2023-07-04T07:01:13.847Z,99.90
2023-07-04T07:03:40.895Z,99.90
2023-07-04T07:06:09.397Z,99.90
2023-07-04T07:08:36.665Z,99.90
2023-07-04T07:11:08.339Z,99.90
2023-07-04T07:13:36.023Z,99.90
2023-07-04T07:16:19.993Z,99.90
2023-07-04T07:18:47.241Z,99.90
2023-07-04T07:21:16.486Z,99.90
2023-07-04T07:23:43.409Z,99.90
2023-07-04T07:26:16.124Z,99.90
2023-07-04T07:28:43.638Z,99.90
2023-07-04T07:31:21.527Z,99.90
2023-07-04T07:33:50.029Z,99.90
2023-07-04T07:36:23.876Z,99.90
2023-07-04T07:38:51.403Z,99.90
2023-07-04T07:41:18.562Z,99.90
2023-07-04T07:43:45.666Z,99.90
2023-07-04T07:46:14.591Z,99.90
2023-07-04T07:48:41.820Z,99.90
2023-07-04T07:51:10.963Z,99.90
2023-07-04T07:53:38.414Z,99.90
2023-07-04T07:56:05.753Z,99.90
2023-07-04T07:58:33.205Z,99.90
2023-07-04T08:01:00.237Z,99.90
2023-07-04T08:03:28.312Z,99.90
2023-07-04T08:05:55.454Z,99.90
2023-07-04T08:08:22.339Z,99.90
2023-07-04T08:10:49.227Z,99.90
2023-07-04T08:13:16.215Z,99.90
2023-07-04T08:15:43.111Z,99.90
2023-07-04T08:18:10.797Z,99.60
2023-07-04T08:20:37.965Z,98.90
2023-07-04T08:23:05.025Z,99.20
2023-07-04T08:25:31.912Z,99.60
2023-07-04T08:27:58.898Z,99.90
2023-07-04T08:30:25.901Z,99.90
2023-07-04T08:32:54.480Z,99.90
2023-07-04T08:35:21.477Z,99.80
2023-07-04T08:37:48.394Z,99.90
2023-07-04T08:40:16.163Z,99.90
2023-07-04T08:42:43.161Z,99.90
2023-07-04T08:45:19.361Z,99.90
2023-07-04T08:47:46.294Z,99.90
2023-07-04T08:50:41.199Z,99.90
2023-07-04T08:53:23.905Z,99.90
2023-07-04T08:56:28.242Z,99.80
2023-07-04T08:59:25.112Z,99.60
2023-07-04T09:02:16.455Z,99.40
2023-07-04T09:05:09.233Z,99.00
2023-07-04T09:08:01.948Z,98.60
2023-07-04T09:10:34.691Z,98.80
2023-07-04T09:13:02.781Z,99.90
2023-07-04T09:15:35.590Z,99.90
2023-07-04T09:18:40.305Z,99.90
2023-07-04T09:21:15.599Z,99.90
2023-07-04T09:23:42.526Z,99.90
2023-07-04T09:26:11.464Z,99.90
2023-07-04T09:28:41.883Z,99.90
2023-07-04T09:31:11.650Z,99.90
2023-07-04T09:33:38.596Z,99.90
2023-07-04T09:36:05.673Z,99.90
2023-07-04T09:38:51.476Z,99.90
2023-07-04T09:41:18.694Z,99.90
2023-07-04T09:43:45.587Z,99.90
2023-07-04T09:46:27.071Z,99.90
2023-07-04T09:48:54.773Z,99.90
2023-07-04T09:51:27.815Z,99.90
2023-07-04T09:54:12.854Z,99.90
2023-07-04T09:56:39.865Z,99.90
2023-07-04T09:59:13.858Z,99.90
2023-07-04T10:01:42.017Z,99.90
2023-07-04T10:04:09.503Z,99.90
2023-07-04T10:06:37.994Z,99.90
2023-07-04T10:09:19.304Z,99.90
2023-07-04T10:11:46.627Z,99.90
2023-07-04T10:14:16.350Z,99.90
2023-07-04T10:16:54.315Z,99.90
2023-07-04T10:19:23.222Z,99.90
2023-07-04T10:21:52.906Z,99.90
2023-07-04T10:24:27.515Z,99.90
2023-07-04T10:27:02.624Z,97.50
2023-07-04T10:29:33.254Z,96.30
2023-07-04T10:32:07.615Z,92.90
2023-07-04T10:34:35.298Z,90.30
2023-07-04T10:37:02.811Z,88.10
2023-07-04T10:39:31.845Z,86.60
2023-07-04T10:42:22.934Z,85.40
2023-07-04T10:44:50.123Z,80.20
2023-07-04T10:47:35.059Z,77.90
2023-07-04T10:50:13.259Z,77.30
2023-07-04T10:52:44.474Z,74.60
2023-07-04T10:55:46.145Z,75.10
2023-07-04T10:58:17.483Z,75.10
2023-07-04T11:00:45.873Z,75.00
2023-07-04T11:03:26.218Z,75.50
2023-07-04T11:05:53.772Z,75.30
2023-07-04T11:08:22.636Z,75.10
2023-07-04T11:10:58.114Z,71.30
2023-07-04T11:13:27.724Z,67.70
2023-07-04T11:15:59.838Z,66.80
2023-07-04T11:18:30.825Z,66.40
2023-07-04T11:21:12.232Z,64.70
2023-07-04T11:23:50.718Z,63.50
2023-07-04T11:26:21.182Z,62.80
2023-07-04T11:29:07.488Z,62.00
2023-07-04T11:31:36.479Z,61.20
2023-07-04T11:34:05.781Z,62.90
2023-07-04T11:36:51.555Z,62.90
2023-07-04T11:39:22.639Z,61.20
2023-07-04T11:41:49.563Z,61.10
2023-07-04T11:44:22.992Z,59.60
2023-07-04T11:47:02.536Z,58.50
2023-07-04T11:49:30.509Z,58.90
2023-07-04T11:52:07.244Z,58.90
2023-07-04T11:54:34.196Z,56.90
2023-07-04T11:57:01.168Z,55.90
2023-07-04T11:59:45.214Z,57.00
2023-07-04T12:02:29.287Z,55.70
2023-07-04T12:04:56.563Z,55.90
2023-07-04T12:07:48.470Z,55.70
2023-07-04T12:10:20.294Z,54.70
2023-07-04T12:12:57.553Z,54.20
2023-07-04T12:15:29.374Z,53.50
2023-07-04T12:17:59.835Z,53.60
2023-07-04T12:20:31.124Z,52.50
2023-07-04T12:23:02.319Z,52.20
2023-07-04T12:25:41.008Z,53.80
2023-07-04T12:28:10.446Z,53.00
2023-07-04T12:33:23.236Z,52.10
2023-07-04T12:35:56.354Z,52.60
2023-07-04T12:38:25.396Z,53.00
2023-07-04T12:40:53.949Z,53.10
2023-07-04T12:50:53.999Z,55.60
2023-07-04T12:53:21.277Z,55.00
2023-07-04T12:55:48.164Z,55.00
2023-07-04T12:58:15.618Z,56.00
2023-07-04T13:00:42.496Z,55.80
2023-07-04T13:03:16.407Z,56.00
2023-07-04T13:05:45.140Z,56.00
2023-07-04T13:08:18.557Z,56.70
2023-07-04T13:10:49.329Z,57.00
2023-07-04T13:13:31.549Z,57.60
2023-07-04T13:16:32.298Z,56.10
2023-07-04T13:19:19.904Z,55.20
2023-07-04T13:21:49.097Z,55.30
2023-07-04T13:27:08.518Z,54.70
2023-07-04T13:34:59.303Z,54.70
2023-07-04T13:37:28.478Z,55.20
2023-07-04T13:39:59.629Z,54.30
2023-07-04T13:42:26.737Z,54.80
2023-07-04T13:47:23.484Z,55.30
2023-07-04T13:49:50.393Z,56.50
2023-07-04T13:52:17.366Z,56.10
2023-07-04T13:54:44.247Z,56.80
2023-07-04T13:57:11.114Z,57.70
2023-07-04T13:59:38.028Z,57.80
2023-07-04T14:07:05.058Z,58.70
2023-07-04T14:09:32.530Z,58.40
2023-07-04T14:12:00.820Z,58.10
2023-07-04T14:17:31.201Z,57.10
2023-07-04T14:22:14.592Z,57.90
2023-07-04T14:24:41.662Z,56.90
2023-07-04T14:27:08.563Z,56.40
2023-07-04T14:29:35.564Z,56.60
2023-07-04T14:32:02.638Z,57.10
2023-07-04T14:34:29.714Z,57.50
2023-07-04T14:36:56.632Z,57.20
2023-07-04T14:39:23.523Z,56.40
2023-07-04T14:44:20.219Z,54.10
2023-07-04T14:46:47.141Z,54.50
2023-07-04T14:49:14.043Z,53.20
2023-07-04T14:51:40.974Z,52.00
2023-07-04T14:54:08.184Z,51.50
2023-07-04T14:56:45.866Z,52.40
2023-07-04T14:59:17.285Z,50.90
2023-07-04T15:01:44.191Z,47.90
2023-07-04T15:04:11.104Z,48.40
2023-07-04T15:06:37.991Z,48.30
2023-07-04T15:09:06.392Z,47.70
2023-07-04T15:11:33.623Z,47.40
2023-07-04T15:14:02.569Z,46.70
2023-07-04T15:16:29.717Z,46.60
2023-07-04T15:18:56.645Z,46.70
2023-07-04T15:21:23.795Z,45.70
2023-07-04T15:23:51.707Z,45.20
2023-07-04T15:26:26.912Z,45.70
2023-07-04T15:28:55.655Z,45.70
2023-07-04T15:31:22.700Z,45.10
2023-07-04T15:33:51.193Z,45.80
2023-07-04T15:36:18.259Z,44.80
2023-07-04T15:38:45.158Z,44.90
2023-07-04T15:41:12.337Z,44.10
2023-07-04T15:43:39.466Z,43.80
2023-07-04T15:46:08.637Z,43.80
2023-07-04T15:48:36.015Z,43.60
2023-07-04T15:51:03.616Z,42.60
2023-07-04T15:53:30.550Z,43.70
2023-07-04T15:56:18.054Z,44.90
2023-07-04T15:58:45.119Z,46.20
2023-07-04T16:01:12.259Z,47.70
2023-07-04T16:03:39.348Z,49.10
2023-07-04T16:06:07.883Z,49.10
2023-07-04T16:08:36.101Z,49.90
2023-07-04T16:11:05.044Z,50.70
2023-07-04T16:13:32.223Z,51.10
2023-07-04T16:15:59.712Z,51.80
2023-07-04T16:18:26.787Z,52.40
2023-07-04T16:20:54.382Z,52.40
2023-07-04T16:23:21.354Z,52.50
2023-07-04T16:25:48.449Z,52.50
2023-07-04T16:28:15.460Z,52.10
2023-07-04T16:30:44.662Z,52.20
2023-07-04T16:33:12.665Z,52.80
2023-07-04T16:35:40.806Z,53.70
2023-07-04T16:38:07.859Z,54.30
2023-07-04T16:40:35.042Z,54.20
2023-07-04T16:43:02.021Z,54.20
2023-07-04T16:45:28.945Z,53.80
2023-07-04T16:47:56.219Z,53.90
2023-07-04T16:50:31.417Z,54.20
2023-07-04T16:53:03.115Z,52.90
2023-07-04T16:55:30.263Z,53.20
2023-07-04T16:57:57.197Z,56.50
2023-07-04T17:00:24.268Z,59.70
2023-07-04T17:02:51.612Z,62.30
2023-07-04T17:05:18.639Z,64.70
2023-07-04T17:07:45.968Z,67.50
2023-07-04T17:10:13.060Z,69.00
2023-07-04T17:12:40.045Z,70.70
2023-07-04T17:15:07.596Z,71.50
2023-07-04T17:17:34.540Z,72.70
2023-07-04T17:20:01.809Z,74.50
2023-07-04T17:22:28.812Z,75.10
2023-07-04T17:25:11.101Z,76.10
2023-07-04T17:27:39.655Z,77.30
2023-07-04T17:30:07.190Z,76.80
2023-07-04T17:32:34.140Z,73.50
2023-07-04T17:35:01.099Z,72.70
2023-07-04T17:37:28.153Z,72.10
2023-07-04T17:39:55.267Z,71.60
2023-07-04T17:42:23.343Z,72.50
2023-07-04T17:44:50.434Z,74.20
2023-07-04T17:47:17.428Z,77.30
2023-07-04T17:49:44.361Z,77.70
2023-07-04T17:52:11.483Z,77.30
2023-07-04T17:54:38.469Z,77.10
2023-07-04T17:57:21.311Z,78.00
2023-07-04T17:59:52.966Z,78.90
2023-07-04T18:02:19.903Z,80.60
2023-07-04T18:04:46.860Z,82.00
2023-07-04T18:07:15.242Z,83.30
2023-07-04T18:09:48.349Z,84.10
2023-07-04T18:12:17.235Z,84.70
2023-07-04T18:14:45.682Z,86.30
2023-07-04T18:17:13.852Z,87.50
2023-07-04T18:19:41.343Z,87.90
2023-07-04T18:22:10.116Z,88.30
2023-07-04T18:24:37.729Z,89.60
2023-07-04T18:27:05.033Z,90.60
2023-07-04T18:29:31.949Z,91.50
2023-07-04T18:32:00.271Z,92.70
2023-07-04T18:34:27.648Z,93.20
2023-07-04T18:36:56.485Z,94.20
2023-07-04T18:39:23.624Z,94.70
2023-07-04T18:41:50.578Z,95.60
2023-07-04T18:44:17.554Z,95.80
2023-07-04T18:46:45.635Z,96.70
2023-07-04T18:49:15.633Z,97.80
2023-07-04T18:51:43.229Z,99.10
2023-07-04T18:54:15.034Z,99.90
2023-07-04T18:56:42.893Z,99.90
2023-07-04T18:59:10.789Z,99.90
2023-07-04T19:01:37.916Z,99.90
2023-07-04T19:04:05.161Z,99.90
2023-07-04T19:06:33.525Z,99.90
2023-07-04T19:09:00.605Z,99.90
2023-07-04T19:11:28.979Z,99.90
2023-07-04T19:14:19.014Z,99.90
2023-07-04T19:16:53.396Z,99.90
2023-07-04T19:19:34.911Z,99.90
2023-07-04T19:22:05.485Z,99.90
2023-07-04T19:24:35.634Z,99.90
2023-07-04T19:27:02.982Z,99.90
2023-07-04T19:29:30.698Z,99.90
2023-07-04T19:32:01.890Z,99.90
2023-07-04T19:34:29.500Z,99.90
2023-07-04T19:36:57.132Z,99.90
2023-07-04T19:39:25.343Z,99.90
2023-07-04T19:41:52.273Z,99.90
2023-07-04T19:44:19.179Z,99.90
2023-07-04T19:46:46.232Z,99.90
2023-07-04T19:49:13.449Z,99.90
2023-07-04T19:51:40.423Z,99.90
2023-07-04T19:54:07.813Z,99.90
2023-07-04T19:56:35.510Z,99.90
2023-07-04T19:59:04.016Z,99.90
2023-07-04T20:01:32.437Z,99.90
2023-07-04T20:04:00.489Z,99.90
2023-07-04T20:06:27.739Z,99.90
2023-07-04T20:08:55.054Z,99.90
2023-07-04T20:11:22.201Z,99.90
2023-07-04T20:13:49.564Z,99.90
2023-07-04T20:16:22.327Z,99.90
2023-07-04T20:18:49.309Z,99.90
2023-07-04T20:21:16.356Z,99.90
2023-07-04T20:23:43.302Z,99.90
2023-07-04T20:26:12.235Z,99.90
2023-07-04T20:28:39.231Z,99.90
2023-07-04T20:31:06.339Z,99.90
2023-07-04T20:33:34.287Z,99.90
2023-07-04T20:36:01.753Z,99.90
2023-07-04T20:38:28.869Z,99.90
2023-07-04T20:40:55.962Z,99.90
2023-07-04T20:43:23.330Z,99.90
2023-07-04T20:45:53.574Z,99.90
2023-07-04T20:48:21.348Z,99.90
2023-07-04T20:50:49.495Z,99.90
2023-07-04T20:53:17.539Z,99.90
2023-07-04T20:55:45.458Z,99.90
2023-07-04T20:58:12.850Z,99.90
2023-07-04T21:00:39.790Z,99.90
2023-07-04T21:03:07.567Z,99.90
2023-07-04T21:05:34.874Z,99.90
2023-07-04T21:08:01.876Z,99.90
2023-07-04T21:10:29.138Z,99.90
2023-07-04T21:12:56.655Z,99.90
2023-07-04T21:15:25.815Z,99.90
2023-07-04T21:17:53.694Z,99.90
2023-07-04T21:20:20.624Z,99.90
2023-07-04T21:22:47.797Z,99.90
2023-07-04T21:25:14.897Z,99.90
2023-07-04T21:27:42.131Z,99.90
2023-07-04T21:30:09.787Z,99.90
2023-07-04T21:32:37.221Z,99.90
2023-07-04T21:35:04.461Z,99.90
2023-07-04T21:37:31.444Z,99.90
2023-07-04T21:39:58.426Z,99.90
2023-07-04T21:42:25.406Z,99.90
2023-07-04T21:44:55.422Z,99.90
2023-07-04T21:47:22.502Z,99.90
2023-07-04T21:49:50.136Z,99.90
2023-07-04T21:52:17.303Z,99.90
2023-07-04T21:54:45.519Z,99.90
2023-07-04T21:57:12.797Z,99.90
2023-07-04T21:59:39.743Z,99.90
2023-07-04T22:02:06.841Z,99.90
2023-07-04T22:04:34.671Z,99.90
2023-07-04T22:07:02.236Z,99.90
2023-07-04T22:09:29.214Z,99.90
2023-07-04T22:11:56.122Z,99.90
2023-07-04T22:14:36.601Z,99.90
2023-07-04T22:17:06.411Z,99.90
2023-07-04T22:19:33.675Z,99.90
2023-07-04T22:22:00.758Z,99.90
2023-07-04T22:24:28.648Z,99.90
2023-07-04T22:26:56.065Z,99.90
2023-07-04T22:29:23.099Z,99.90
2023-07-04T22:31:50.130Z,99.90
2023-07-04T22:34:17.062Z,99.90
2023-07-04T22:36:44.049Z,99.90
2023-07-04T22:39:10.988Z,99.90
2023-07-04T22:41:38.242Z,99.90
2023-07-04T22:44:05.353Z,99.90
2023-07-04T22:46:32.502Z,99.90
2023-07-04T22:48:59.694Z,99.90
2023-07-04T22:51:26.731Z,99.90
2023-07-04T22:53:53.691Z,99.90
2023-07-04T22:56:20.766Z,99.90
2023-07-04T22:58:47.949Z,99.90
2023-07-04T23:01:22.657Z,99.90
2023-07-04T23:03:50.362Z,99.90
2023-07-04T23:06:17.752Z,99.90
2023-07-04T23:08:45.054Z,99.90
2023-07-04T23:11:12.491Z,99.90
2023-07-04T23:13:39.560Z,99.90
2023-07-04T23:16:07.574Z,99.90
2023-07-04T23:18:34.921Z,99.90
2023-07-04T23:21:01.992Z,99.90
2023-07-04T23:23:29.356Z,99.90
2023-07-04T23:25:56.635Z,99.90
2023-07-04T23:28:24.672Z,99.90
2023-07-04T23:30:51.686Z,99.90
2023-07-04T23:33:18.776Z,99.90
2023-07-04T23:35:55.956Z,99.90
2023-07-04T23:38:22.979Z,99.90
2023-07-04T23:40:49.906Z,99.90
2023-07-04T23:43:16.896Z,99.90
2023-07-04T23:45:43.959Z,99.90
2023-07-04T23:48:11.045Z,99.90
2023-07-04T23:50:37.997Z,99.90
2023-07-04T23:53:05.174Z,99.90
2023-07-04T23:55:32.310Z,99.90
2023-07-04T23:57:59.230Z,99.90
